Overview Statistics Trail Chart Weather Telemetry Raw packets
 

This is the latest recevied weather packets stored in our database for station/object W5CMS-13. If no packets are shown the sender has not sent any weather packets the latest 10 day(s).

<< 15 16 17 18 19 20 21 >>
Time Temp. Humidity Pressure Rain* Wind** Luminosity Snow
1788378917 36.11° C 49% 1012.4 hPa 0 mm - - -
1788378317 35.56° C 51% 1012.5 hPa 0 mm - - -
1788377717 35.56° C 49% 1012.8 hPa 0 mm - - -
1788377117 36.11° C 51% 1012.9 hPa 0 mm - - -
1788376517 35.56° C 51% 1013.1 hPa 0 mm - - -
1788375917 35.56° C 51% 1013.2 hPa 0 mm - - -
1788375318 35° C 52% 1013.4 hPa 0 mm - - -
1788374717 35.56° C 52% 1013.5 hPa 0 mm - - -
1788374117 35° C 53% 1013.7 hPa 0 mm - - -
1788373517 34.44° C 56% 1013.8 hPa 0 mm - - -
1788372918 33.89° C 56% 1014.1 hPa 0 mm - - -
1788372317 34.44° C 56% 1014.3 hPa 0 mm - - -
1788371717 35° C 55% 1014.6 hPa 0 mm - - -
1788371117 33.89° C 55% 1014.7 hPa 0 mm - - -
1788370518 34.44° C 56% 1014.8 hPa 0 mm - - -
1788369917 33.89° C 58% 1014.9 hPa 0 mm - - -
1788369328 33.89° C 58% 1015.1 hPa 0 mm - - -
1788368717 33.33° C 58% 1015.4 hPa 0 mm - - -
1788368118 32.78° C 61% 1015.4 hPa 0 mm - - -
1788367517 32.78° C 62% 1015.5 hPa 0 mm - - -
1788366917 32.22° C 65% 1015.6 hPa 0 mm - - -
1788366317 32.22° C 63% 1015.7 hPa 0 mm - - -
1788365719 31.67° C 66% 1015.7 hPa 0 mm - - -
1788365119 31.67° C 66% 1015.7 hPa 0 mm - - -
1788364516 31.67° C 67% 1015.8 hPa 0 mm - - -

* Rain latest hour (hover to see other rain measurements)
** Current wind speed in m/s (hover to see current wind gust speed)